sensor_id;sensor_type;location;lat;lon;timestamp;noise_LAeq;noise_LA_min;noise_LA_max;noise_LA01;noise_LA95
66399;Laerm;54877;51.504;3.894;2023-08-06T00:01:11;36.11;34.51;39.75;;
66399;Laerm;54877;51.504;3.894;2023-08-06T00:03:37;36.26;34.84;38.39;;
66399;Laerm;54877;51.504;3.894;2023-08-06T00:06:02;36.68;34.95;40.56;;
66399;Laerm;54877;51.504;3.894;2023-08-06T00:08:29;36.43;34.78;39.07;;
66399;Laerm;54877;51.504;3.894;2023-08-06T00:10:55;36.86;35.56;39.93;;
66399;Laerm;54877;51.504;3.894;2023-08-06T00:13:20;36.46;35.06;41.10;;
66399;Laerm;54877;51.504;3.894;2023-08-06T00:15:45;36.13;34.45;43.01;;
66399;Laerm;54877;51.504;3.894;2023-08-06T00:18:11;35.96;34.48;40.05;;
66399;Laerm;54877;51.504;3.894;2023-08-06T00:20:38;39.92;34.64;55.10;;
66399;Laerm;54877;51.504;3.894;2023-08-06T00:23:04;35.95;34.64;41.59;;
66399;Laerm;54877;51.504;3.894;2023-08-06T00:25:29;35.91;34.73;39.66;;
66399;Laerm;54877;51.504;3.894;2023-08-06T00:27:55;43.07;34.59;62.21;;
66399;Laerm;54877;51.504;3.894;2023-08-06T00:30:21;36.35;34.67;45.69;;
66399;Laerm;54877;51.504;3.894;2023-08-06T00:32:47;36.50;34.91;40.90;;
66399;Laerm;54877;51.504;3.894;2023-08-06T00:35:12;36.98;35.31;40.02;;
66399;Laerm;54877;51.504;3.894;2023-08-06T00:37:38;37.20;35.54;42.01;;
66399;Laerm;54877;51.504;3.894;2023-08-06T00:40:05;37.23;35.44;49.84;;
66399;Laerm;54877;51.504;3.894;2023-08-06T00:42:31;36.70;35.22;43.72;;
66399;Laerm;54877;51.504;3.894;2023-08-06T00:44:56;36.82;35.35;40.56;;
66399;Laerm;54877;51.504;3.894;2023-08-06T00:47:21;36.85;35.33;42.87;;
66399;Laerm;54877;51.504;3.894;2023-08-06T00:49:47;37.31;35.64;42.39;;
66399;Laerm;54877;51.504;3.894;2023-08-06T00:52:13;37.37;35.76;42.07;;
66399;Laerm;54877;51.504;3.894;2023-08-06T00:54:39;37.06;35.38;50.04;;
66399;Laerm;54877;51.504;3.894;2023-08-06T00:57:07;37.28;35.62;40.88;;
66399;Laerm;54877;51.504;3.894;2023-08-06T00:59:32;37.97;36.44;41.35;;
66399;Laerm;54877;51.504;3.894;2023-08-06T01:01:58;37.99;36.33;42.14;;
66399;Laerm;54877;51.504;3.894;2023-08-06T01:04:24;38.01;36.33;43.58;;
66399;Laerm;54877;51.504;3.894;2023-08-06T01:07:06;39.10;37.28;54.59;;
66399;Laerm;54877;51.504;3.894;2023-08-06T01:16:58;38.48;36.14;53.35;;
66399;Laerm;54877;51.504;3.894;2023-08-06T01:19:24;37.30;35.42;48.98;;
66399;Laerm;54877;51.504;3.894;2023-08-06T01:21:50;37.09;35.39;51.22;;
66399;Laerm;54877;51.504;3.894;2023-08-06T01:24:15;37.27;35.16;49.44;;
66399;Laerm;54877;51.504;3.894;2023-08-06T01:27:04;37.19;35.33;53.37;;
66399;Laerm;54877;51.504;3.894;2023-08-06T01:29:40;37.15;35.28;42.44;;
66399;Laerm;54877;51.504;3.894;2023-08-06T01:32:08;36.63;35.10;43.12;;
66399;Laerm;54877;51.504;3.894;2023-08-06T01:34:39;36.57;35.12;50.90;;
66399;Laerm;54877;51.504;3.894;2023-08-06T01:37:05;36.64;34.79;49.99;;
66399;Laerm;54877;51.504;3.894;2023-08-06T01:39:33;36.50;34.83;52.48;;
66399;Laerm;54877;51.504;3.894;2023-08-06T01:41:58;36.15;34.84;50.12;;
66399;Laerm;54877;51.504;3.894;2023-08-06T01:44:24;36.16;34.98;42.57;;
66399;Laerm;54877;51.504;3.894;2023-08-06T01:46:49;36.09;34.81;40.22;;
66399;Laerm;54877;51.504;3.894;2023-08-06T01:49:14;36.25;34.66;47.90;;
66399;Laerm;54877;51.504;3.894;2023-08-06T01:51:40;36.10;34.50;45.85;;
66399;Laerm;54877;51.504;3.894;2023-08-06T01:54:05;36.06;34.58;50.82;;
66399;Laerm;54877;51.504;3.894;2023-08-06T01:56:30;41.05;34.95;65.42;;
66399;Laerm;54877;51.504;3.894;2023-08-06T01:58:56;40.04;34.85;60.95;;
66399;Laerm;54877;51.504;3.894;2023-08-06T02:01:21;40.88;38.28;49.88;;
66399;Laerm;54877;51.504;3.894;2023-08-06T02:03:46;40.49;38.21;49.86;;
66399;Laerm;54877;51.504;3.894;2023-08-06T02:06:12;37.56;34.73;58.62;;
66399;Laerm;54877;51.504;3.894;2023-08-06T02:08:37;37.04;34.86;64.08;;
66399;Laerm;54877;51.504;3.894;2023-08-06T02:11:03;42.01;34.98;64.47;;
66399;Laerm;54877;51.504;3.894;2023-08-06T02:13:29;38.08;34.66;54.41;;
66399;Laerm;54877;51.504;3.894;2023-08-06T02:15:54;40.31;34.68;60.91;;
66399;Laerm;54877;51.504;3.894;2023-08-06T02:18:19;37.57;35.21;53.85;;
66399;Laerm;54877;51.504;3.894;2023-08-06T02:20:57;38.48;35.32;58.84;;
66399;Laerm;54877;51.504;3.894;2023-08-06T02:23:23;36.12;34.71;42.93;;
66399;Laerm;54877;51.504;3.894;2023-08-06T02:28:24;36.41;34.83;39.66;;
66399;Laerm;54877;51.504;3.894;2023-08-06T02:30:50;36.82;35.19;40.61;;
66399;Laerm;54877;51.504;3.894;2023-08-06T02:33:19;36.19;34.81;40.50;;
66399;Laerm;54877;51.504;3.894;2023-08-06T02:35:44;36.55;34.75;41.08;;
66399;Laerm;54877;51.504;3.894;2023-08-06T02:38:10;37.96;35.61;43.05;;
66399;Laerm;54877;51.504;3.894;2023-08-06T02:40:35;37.92;35.68;42.12;;
66399;Laerm;54877;51.504;3.894;2023-08-06T02:43:00;38.45;36.29;41.66;;
66399;Laerm;54877;51.504;3.894;2023-08-06T02:45:26;37.78;35.98;41.38;;
66399;Laerm;54877;51.504;3.894;2023-08-06T02:47:51;41.24;37.17;49.75;;
66399;Laerm;54877;51.504;3.894;2023-08-06T02:50:16;42.53;38.20;47.09;;
66399;Laerm;54877;51.504;3.894;2023-08-06T02:52:42;46.99;42.21;52.53;;
66399;Laerm;54877;51.504;3.894;2023-08-06T02:55:07;48.53;41.40;61.59;;
66399;Laerm;54877;51.504;3.894;2023-08-06T02:57:33;47.42;40.15;56.48;;
66399;Laerm;54877;51.504;3.894;2023-08-06T02:59:58;44.02;40.25;48.48;;
66399;Laerm;54877;51.504;3.894;2023-08-06T03:02:23;43.88;39.97;49.64;;
66399;Laerm;54877;51.504;3.894;2023-08-06T03:04:49;41.40;38.06;48.26;;
66399;Laerm;54877;51.504;3.894;2023-08-06T03:07:14;41.61;38.83;45.50;;
66399;Laerm;54877;51.504;3.894;2023-08-06T03:09:39;45.82;39.69;50.74;;
66399;Laerm;54877;51.504;3.894;2023-08-06T03:12:05;42.85;39.43;47.85;;
66399;Laerm;54877;51.504;3.894;2023-08-06T03:14:30;41.77;38.52;47.37;;
66399;Laerm;54877;51.504;3.894;2023-08-06T03:16:56;42.32;38.61;47.21;;
66399;Laerm;54877;51.504;3.894;2023-08-06T03:19:21;40.71;37.29;52.14;;
66399;Laerm;54877;51.504;3.894;2023-08-06T03:21:46;40.01;37.56;46.14;;
66399;Laerm;54877;51.504;3.894;2023-08-06T03:24:13;40.02;36.99;60.18;;
66399;Laerm;54877;51.504;3.894;2023-08-06T03:26:39;40.29;37.44;46.00;;
66399;Laerm;54877;51.504;3.894;2023-08-06T03:29:04;39.18;36.72;52.14;;
66399;Laerm;54877;51.504;3.894;2023-08-06T03:31:29;39.33;36.92;46.34;;
66399;Laerm;54877;51.504;3.894;2023-08-06T03:33:55;41.28;38.00;50.30;;
66399;Laerm;54877;51.504;3.894;2023-08-06T03:36:20;42.56;38.85;47.31;;
66399;Laerm;54877;51.504;3.894;2023-08-06T03:38:45;42.20;38.95;49.11;;
66399;Laerm;54877;51.504;3.894;2023-08-06T03:41:11;44.28;38.91;50.78;;
66399;Laerm;54877;51.504;3.894;2023-08-06T03:43:36;49.21;42.32;56.33;;
66399;Laerm;54877;51.504;3.894;2023-08-06T03:46:01;49.24;43.78;53.72;;
66399;Laerm;54877;51.504;3.894;2023-08-06T03:48:27;46.41;41.27;50.72;;
66399;Laerm;54877;51.504;3.894;2023-08-06T03:50:52;49.22;44.34;55.79;;
66399;Laerm;54877;51.504;3.894;2023-08-06T03:53:17;45.61;40.43;51.55;;
66399;Laerm;54877;51.504;3.894;2023-08-06T03:55:43;42.19;39.06;54.75;;
66399;Laerm;54877;51.504;3.894;2023-08-06T03:58:08;41.89;38.75;56.60;;
66399;Laerm;54877;51.504;3.894;2023-08-06T04:00:33;41.36;37.08;58.61;;
66399;Laerm;54877;51.504;3.894;2023-08-06T04:02:59;40.23;36.84;59.11;;
66399;Laerm;54877;51.504;3.894;2023-08-06T04:05:24;39.81;37.09;50.21;;
66399;Laerm;54877;51.504;3.894;2023-08-06T04:07:49;40.10;36.46;57.18;;
66399;Laerm;54877;51.504;3.894;2023-08-06T04:10:15;37.93;35.94;43.06;;
66399;Laerm;54877;51.504;3.894;2023-08-06T04:12:40;37.75;35.74;51.24;;
66399;Laerm;54877;51.504;3.894;2023-08-06T04:15:06;37.08;35.06;43.99;;
66399;Laerm;54877;51.504;3.894;2023-08-06T04:17:32;42.82;35.19;59.32;;
66399;Laerm;54877;51.504;3.894;2023-08-06T04:19:57;37.03;34.70;47.79;;
66399;Laerm;54877;51.504;3.894;2023-08-06T04:22:24;38.02;34.98;62.11;;
66399;Laerm;54877;51.504;3.894;2023-08-06T04:24:50;36.99;35.16;42.07;;
66399;Laerm;54877;51.504;3.894;2023-08-06T04:27:16;36.48;34.73;42.39;;
66399;Laerm;54877;51.504;3.894;2023-08-06T04:29:42;36.45;34.78;45.68;;
66399;Laerm;54877;51.504;3.894;2023-08-06T04:32:09;36.16;34.67;51.80;;
66399;Laerm;54877;51.504;3.894;2023-08-06T04:34:36;42.55;34.44;61.44;;
66399;Laerm;54877;51.504;3.894;2023-08-06T04:37:02;37.34;34.99;50.93;;
66399;Laerm;54877;51.504;3.894;2023-08-06T04:39:27;36.12;34.34;44.73;;
66399;Laerm;54877;51.504;3.894;2023-08-06T04:41:53;39.48;34.67;70.72;;
66399;Laerm;54877;51.504;3.894;2023-08-06T04:44:18;36.05;34.63;43.88;;
66399;Laerm;54877;51.504;3.894;2023-08-06T04:46:44;36.45;34.47;54.04;;
66399;Laerm;54877;51.504;3.894;2023-08-06T04:49:09;35.92;34.47;40.45;;
66399;Laerm;54877;51.504;3.894;2023-08-06T04:51:35;36.00;34.64;46.00;;
66399;Laerm;54877;51.504;3.894;2023-08-06T04:54:00;36.15;34.49;48.11;;
66399;Laerm;54877;51.504;3.894;2023-08-06T04:56:26;36.54;34.52;49.25;;
66399;Laerm;54877;51.504;3.894;2023-08-06T04:58:52;36.11;34.40;45.41;;
66399;Laerm;54877;51.504;3.894;2023-08-06T05:01:17;36.06;34.40;43.18;;
66399;Laerm;54877;51.504;3.894;2023-08-06T05:03:43;36.25;34.46;45.54;;
66399;Laerm;54877;51.504;3.894;2023-08-06T05:06:08;35.97;34.52;49.92;;
66399;Laerm;54877;51.504;3.894;2023-08-06T05:08:33;35.94;34.57;51.57;;
66399;Laerm;54877;51.504;3.894;2023-08-06T05:10:59;35.96;34.43;39.09;;
66399;Laerm;54877;51.504;3.894;2023-08-06T05:13:24;36.08;34.49;43.74;;
66399;Laerm;54877;51.504;3.894;2023-08-06T05:15:50;36.36;34.56;48.35;;
66399;Laerm;54877;51.504;3.894;2023-08-06T05:18:16;37.16;34.38;54.00;;
66399;Laerm;54877;51.504;3.894;2023-08-06T05:20:42;35.97;34.57;45.24;;
66399;Laerm;54877;51.504;3.894;2023-08-06T05:23:08;36.33;34.47;47.10;;
66399;Laerm;54877;51.504;3.894;2023-08-06T05:25:37;35.93;34.39;41.33;;
66399;Laerm;54877;51.504;3.894;2023-08-06T05:28:03;37.18;34.58;51.81;;
66399;Laerm;54877;51.504;3.894;2023-08-06T05:30:28;36.22;34.29;44.04;;
66399;Laerm;54877;51.504;3.894;2023-08-06T05:32:54;35.69;33.96;47.35;;
66399;Laerm;54877;51.504;3.894;2023-08-06T05:35:20;36.36;33.96;50.39;;
66399;Laerm;54877;51.504;3.894;2023-08-06T05:37:46;35.81;33.82;48.43;;
66399;Laerm;54877;51.504;3.894;2023-08-06T05:40:11;36.11;34.13;45.73;;
66399;Laerm;54877;51.504;3.894;2023-08-06T05:42:36;35.80;34.07;50.59;;
66399;Laerm;54877;51.504;3.894;2023-08-06T05:45:02;35.67;33.88;47.61;;
66399;Laerm;54877;51.504;3.894;2023-08-06T05:47:27;36.37;34.16;53.28;;
66399;Laerm;54877;51.504;3.894;2023-08-06T05:49:53;35.81;33.94;51.15;;
66399;Laerm;54877;51.504;3.894;2023-08-06T05:52:18;35.52;33.42;46.80;;
66399;Laerm;54877;51.504;3.894;2023-08-06T05:54:43;36.98;34.20;55.53;;
66399;Laerm;54877;51.504;3.894;2023-08-06T05:57:09;37.41;34.03;52.90;;
66399;Laerm;54877;51.504;3.894;2023-08-06T05:59:34;35.85;33.85;46.27;;
66399;Laerm;54877;51.504;3.894;2023-08-06T06:01:59;38.11;34.05;56.20;;
66399;Laerm;54877;51.504;3.894;2023-08-06T06:04:25;45.19;34.33;67.81;;
66399;Laerm;54877;51.504;3.894;2023-08-06T06:06:50;39.93;34.53;63.78;;
66399;Laerm;54877;51.504;3.894;2023-08-06T06:09:15;37.22;33.72;61.38;;
66399;Laerm;54877;51.504;3.894;2023-08-06T06:11:41;38.12;34.27;54.01;;
66399;Laerm;54877;51.504;3.894;2023-08-06T06:14:06;37.32;34.26;56.14;;
66399;Laerm;54877;51.504;3.894;2023-08-06T06:16:32;36.14;34.04;56.92;;
66399;Laerm;54877;51.504;3.894;2023-08-06T06:18:57;36.11;34.36;48.17;;
66399;Laerm;54877;51.504;3.894;2023-08-06T06:21:23;35.96;34.18;46.23;;
66399;Laerm;54877;51.504;3.894;2023-08-06T06:23:49;36.50;34.09;52.92;;
66399;Laerm;54877;51.504;3.894;2023-08-06T06:26:17;36.40;33.92;52.28;;
66399;Laerm;54877;51.504;3.894;2023-08-06T06:28:43;36.86;33.92;60.45;;
66399;Laerm;54877;51.504;3.894;2023-08-06T06:31:08;43.78;34.11;66.33;;
66399;Laerm;54877;51.504;3.894;2023-08-06T06:33:34;40.28;34.21;63.67;;
66399;Laerm;54877;51.504;3.894;2023-08-06T06:35:59;36.58;34.14;52.03;;
66399;Laerm;54877;51.504;3.894;2023-08-06T06:38:25;36.53;34.11;49.66;;
66399;Laerm;54877;51.504;3.894;2023-08-06T06:40:54;36.17;33.67;45.67;;
66399;Laerm;54877;51.504;3.894;2023-08-06T06:43:19;36.25;34.06;52.79;;
66399;Laerm;54877;51.504;3.894;2023-08-06T06:45:45;35.80;33.98;47.99;;
66399;Laerm;54877;51.504;3.894;2023-08-06T06:48:10;41.94;34.42;66.19;;
66399;Laerm;54877;51.504;3.894;2023-08-06T06:50:36;36.73;34.64;47.78;;
66399;Laerm;54877;51.504;3.894;2023-08-06T06:53:01;37.97;34.53;54.13;;
66399;Laerm;54877;51.504;3.894;2023-08-06T06:55:26;37.80;34.46;58.67;;
66399;Laerm;54877;51.504;3.894;2023-08-06T06:57:52;36.94;34.50;53.60;;
66399;Laerm;54877;51.504;3.894;2023-08-06T07:00:18;37.27;34.23;51.57;;
66399;Laerm;54877;51.504;3.894;2023-08-06T07:02:43;37.54;34.42;55.06;;
66399;Laerm;54877;51.504;3.894;2023-08-06T07:05:08;37.55;34.30;52.98;;
66399;Laerm;54877;51.504;3.894;2023-08-06T07:07:34;36.07;34.05;43.35;;
66399;Laerm;54877;51.504;3.894;2023-08-06T07:10:01;42.93;34.55;59.58;;
66399;Laerm;54877;51.504;3.894;2023-08-06T07:12:26;37.53;34.34;51.36;;
66399;Laerm;54877;51.504;3.894;2023-08-06T07:14:51;43.70;34.19;61.75;;
66399;Laerm;54877;51.504;3.894;2023-08-06T07:17:17;36.18;34.59;41.98;;
66399;Laerm;54877;51.504;3.894;2023-08-06T07:19:42;46.68;34.62;66.08;;
66399;Laerm;54877;51.504;3.894;2023-08-06T07:22:07;36.26;34.35;43.21;;
66399;Laerm;54877;51.504;3.894;2023-08-06T07:24:33;36.44;34.45;43.29;;
66399;Laerm;54877;51.504;3.894;2023-08-06T07:26:58;37.17;34.44;59.09;;
66399;Laerm;54877;51.504;3.894;2023-08-06T07:29:23;37.33;34.45;50.81;;
66399;Laerm;54877;51.504;3.894;2023-08-06T07:31:49;36.24;34.42;45.48;;
66399;Laerm;54877;51.504;3.894;2023-08-06T07:34:15;36.03;34.46;42.15;;
66399;Laerm;54877;51.504;3.894;2023-08-06T07:36:44;37.87;34.59;53.06;;
66399;Laerm;54877;51.504;3.894;2023-08-06T07:39:09;36.68;34.40;48.17;;
66399;Laerm;54877;51.504;3.894;2023-08-06T07:41:35;37.39;34.86;50.81;;
66399;Laerm;54877;51.504;3.894;2023-08-06T07:44:00;38.00;34.97;52.62;;
66399;Laerm;54877;51.504;3.894;2023-08-06T07:46:26;45.79;35.88;61.49;;
66399;Laerm;54877;51.504;3.894;2023-08-06T07:48:51;42.34;35.77;58.50;;
66399;Laerm;54877;51.504;3.894;2023-08-06T07:51:17;41.47;34.93;59.54;;
66399;Laerm;54877;51.504;3.894;2023-08-06T07:53:42;39.92;35.16;59.79;;
66399;Laerm;54877;51.504;3.894;2023-08-06T07:56:07;45.11;34.89;67.20;;
66399;Laerm;54877;51.504;3.894;2023-08-06T07:58:33;39.81;35.83;62.31;;
66399;Laerm;54877;51.504;3.894;2023-08-06T08:00:58;40.05;34.90;66.15;;
66399;Laerm;54877;51.504;3.894;2023-08-06T08:03:23;37.76;35.18;58.69;;
66399;Laerm;54877;51.504;3.894;2023-08-06T08:05:49;47.76;35.31;66.88;;
66399;Laerm;54877;51.504;3.894;2023-08-06T08:08:14;37.82;35.16;52.82;;
66399;Laerm;54877;51.504;3.894;2023-08-06T08:10:42;38.12;34.98;60.66;;
66399;Laerm;54877;51.504;3.894;2023-08-06T08:13:07;38.37;34.89;55.66;;
66399;Laerm;54877;51.504;3.894;2023-08-06T08:15:34;39.96;35.97;62.34;;
66399;Laerm;54877;51.504;3.894;2023-08-06T08:17:59;39.20;35.65;52.26;;
66399;Laerm;54877;51.504;3.894;2023-08-06T08:20:25;37.55;35.25;48.45;;
66399;Laerm;54877;51.504;3.894;2023-08-06T08:22:56;39.61;35.59;53.40;;
66399;Laerm;54877;51.504;3.894;2023-08-06T08:25:21;38.28;35.42;48.55;;
66399;Laerm;54877;51.504;3.894;2023-08-06T08:27:47;39.14;35.82;54.96;;
66399;Laerm;54877;51.504;3.894;2023-08-06T08:30:12;40.92;36.55;59.41;;
66399;Laerm;54877;51.504;3.894;2023-08-06T08:32:38;44.36;36.16;67.04;;
66399;Laerm;54877;51.504;3.894;2023-08-06T08:35:03;48.38;35.96;68.42;;
66399;Laerm;54877;51.504;3.894;2023-08-06T08:37:29;39.10;35.91;51.11;;
66399;Laerm;54877;51.504;3.894;2023-08-06T08:39:54;37.48;35.33;43.76;;
66399;Laerm;54877;51.504;3.894;2023-08-06T08:42:19;40.53;35.22;61.65;;
66399;Laerm;54877;51.504;3.894;2023-08-06T08:44:46;39.40;35.35;53.02;;
66399;Laerm;54877;51.504;3.894;2023-08-06T08:47:12;50.44;35.29;67.39;;
66399;Laerm;54877;51.504;3.894;2023-08-06T08:49:38;44.07;35.38;62.64;;
66399;Laerm;54877;51.504;3.894;2023-08-06T08:52:04;45.25;37.37;53.33;;
66399;Laerm;54877;51.504;3.894;2023-08-06T08:54:37;45.40;38.81;64.28;;
66399;Laerm;54877;51.504;3.894;2023-08-06T08:57:03;39.48;35.73;57.78;;
66399;Laerm;54877;51.504;3.894;2023-08-06T08:59:29;39.72;36.12;61.85;;
66399;Laerm;54877;51.504;3.894;2023-08-06T09:01:55;40.42;37.25;56.46;;
66399;Laerm;54877;51.504;3.894;2023-08-06T09:04:22;39.22;35.70;53.47;;
66399;Laerm;54877;51.504;3.894;2023-08-06T09:06:50;37.98;35.58;54.06;;
66399;Laerm;54877;51.504;3.894;2023-08-06T09:09:36;37.31;35.46;54.55;;
66399;Laerm;54877;51.504;3.894;2023-08-06T09:12:11;44.59;35.16;62.97;;
66399;Laerm;54877;51.504;3.894;2023-08-06T09:14:37;38.61;35.21;53.99;;
66399;Laerm;54877;51.504;3.894;2023-08-06T09:17:04;36.94;35.22;45.13;;
66399;Laerm;54877;51.504;3.894;2023-08-06T09:19:31;40.20;35.82;45.67;;
66399;Laerm;54877;51.504;3.894;2023-08-06T09:21:56;37.42;35.52;47.74;;
66399;Laerm;54877;51.504;3.894;2023-08-06T09:24:22;37.89;35.33;52.22;;
66399;Laerm;54877;51.504;3.894;2023-08-06T09:26:48;37.35;35.08;47.77;;
66399;Laerm;54877;51.504;3.894;2023-08-06T09:29:13;48.10;34.61;67.56;;
66399;Laerm;54877;51.504;3.894;2023-08-06T09:31:46;37.04;35.28;43.44;;
66399;Laerm;54877;51.504;3.894;2023-08-06T09:34:19;44.51;35.08;61.00;;
66399;Laerm;54877;51.504;3.894;2023-08-06T09:36:50;45.54;34.94;65.58;;
66399;Laerm;54877;51.504;3.894;2023-08-06T09:39:26;36.82;34.94;50.40;;
66399;Laerm;54877;51.504;3.894;2023-08-06T09:41:56;37.03;35.15;51.55;;
66399;Laerm;54877;51.504;3.894;2023-08-06T09:44:21;38.83;35.51;61.21;;
66399;Laerm;54877;51.504;3.894;2023-08-06T09:46:50;40.37;35.72;57.55;;
66399;Laerm;54877;51.504;3.894;2023-08-06T09:49:17;48.08;35.07;67.89;;
66399;Laerm;54877;51.504;3.894;2023-08-06T09:51:43;42.32;35.12;64.27;;
66399;Laerm;54877;51.504;3.894;2023-08-06T09:54:12;44.71;35.10;72.78;;
66399;Laerm;54877;51.504;3.894;2023-08-06T09:56:37;39.71;34.72;56.66;;
66399;Laerm;54877;51.504;3.894;2023-08-06T09:59:06;44.69;35.82;69.09;;
66399;Laerm;54877;51.504;3.894;2023-08-06T10:01:35;40.19;35.54;52.38;;
66399;Laerm;54877;51.504;3.894;2023-08-06T10:04:05;39.04;35.83;52.94;;
66399;Laerm;54877;51.504;3.894;2023-08-06T10:06:36;48.17;35.86;67.85;;
66399;Laerm;54877;51.504;3.894;2023-08-06T10:09:03;43.77;35.77;63.43;;
66399;Laerm;54877;51.504;3.894;2023-08-06T10:11:28;38.22;35.44;58.91;;
66399;Laerm;54877;51.504;3.894;2023-08-06T10:14:02;37.24;35.41;47.20;;
66399;Laerm;54877;51.504;3.894;2023-08-06T10:16:31;38.25;35.42;55.63;;
66399;Laerm;54877;51.504;3.894;2023-08-06T10:18:57;38.32;35.78;49.62;;
66399;Laerm;54877;51.504;3.894;2023-08-06T10:21:24;44.34;34.85;63.74;;
66399;Laerm;54877;51.504;3.894;2023-08-06T10:23:54;47.34;35.01;66.61;;
66399;Laerm;54877;51.504;3.894;2023-08-06T10:26:20;37.83;34.88;58.52;;
66399;Laerm;54877;51.504;3.894;2023-08-06T10:28:45;38.67;35.39;49.66;;
66399;Laerm;54877;51.504;3.894;2023-08-06T10:31:11;46.51;35.65;65.55;;
66399;Laerm;54877;51.504;3.894;2023-08-06T10:33:44;47.61;35.48;65.06;;
66399;Laerm;54877;51.504;3.894;2023-08-06T10:36:10;37.90;34.90;49.32;;
66399;Laerm;54877;51.504;3.894;2023-08-06T10:38:49;39.10;34.99;55.65;;
66399;Laerm;54877;51.504;3.894;2023-08-06T10:41:28;38.39;35.17;54.89;;
66399;Laerm;54877;51.504;3.894;2023-08-06T10:44:06;48.92;35.36;67.00;;
66399;Laerm;54877;51.504;3.894;2023-08-06T10:46:34;38.60;35.14;51.37;;
66399;Laerm;54877;51.504;3.894;2023-08-06T10:49:00;37.68;35.32;50.06;;
66399;Laerm;54877;51.504;3.894;2023-08-06T10:51:26;44.88;36.62;60.94;;
66399;Laerm;54877;51.504;3.894;2023-08-06T10:53:53;47.82;37.04;66.49;;
66399;Laerm;54877;51.504;3.894;2023-08-06T10:56:22;38.74;35.55;54.13;;
66399;Laerm;54877;51.504;3.894;2023-08-06T10:58:49;39.19;35.36;61.95;;
66399;Laerm;54877;51.504;3.894;2023-08-06T11:01:15;43.24;35.65;60.10;;
66399;Laerm;54877;51.504;3.894;2023-08-06T11:03:42;46.93;36.30;67.16;;
66399;Laerm;54877;51.504;3.894;2023-08-06T11:06:09;47.16;35.24;68.20;;
66399;Laerm;54877;51.504;3.894;2023-08-06T11:08:36;37.88;35.50;53.24;;
66399;Laerm;54877;51.504;3.894;2023-08-06T11:11:13;39.37;36.38;62.71;;
66399;Laerm;54877;51.504;3.894;2023-08-06T11:13:42;39.54;36.35;54.71;;
66399;Laerm;54877;51.504;3.894;2023-08-06T11:16:10;41.11;36.82;60.02;;
66399;Laerm;54877;51.504;3.894;2023-08-06T11:18:35;37.77;35.55;57.81;;
66399;Laerm;54877;51.504;3.894;2023-08-06T11:21:01;45.35;36.12;64.97;;
66399;Laerm;54877;51.504;3.894;2023-08-06T11:23:27;48.23;36.20;66.04;;
66399;Laerm;54877;51.504;3.894;2023-08-06T11:25:57;40.13;36.54;53.68;;
66399;Laerm;54877;51.504;3.894;2023-08-06T11:28:23;45.60;36.13;65.43;;
66399;Laerm;54877;51.504;3.894;2023-08-06T11:30:49;37.66;35.48;49.94;;
66399;Laerm;54877;51.504;3.894;2023-08-06T11:33:20;38.33;35.67;57.81;;
66399;Laerm;54877;51.504;3.894;2023-08-06T11:35:47;39.51;35.77;59.61;;
66399;Laerm;54877;51.504;3.894;2023-08-06T11:38:13;37.54;35.32;53.99;;
66399;Laerm;54877;51.504;3.894;2023-08-06T11:40:39;38.92;35.70;49.48;;
66399;Laerm;54877;51.504;3.894;2023-08-06T11:43:05;39.50;36.54;59.81;;
66399;Laerm;54877;51.504;3.894;2023-08-06T11:45:31;44.07;36.28;59.07;;
66399;Laerm;54877;51.504;3.894;2023-08-06T11:47:56;38.75;35.85;55.97;;
66399;Laerm;54877;51.504;3.894;2023-08-06T11:50:25;39.85;36.30;52.91;;
66399;Laerm;54877;51.504;3.894;2023-08-06T11:52:56;40.53;36.91;54.46;;
66399;Laerm;54877;51.504;3.894;2023-08-06T11:55:23;46.98;39.33;61.57;;
66399;Laerm;54877;51.504;3.894;2023-08-06T11:57:49;50.68;42.35;73.60;;
66399;Laerm;54877;51.504;3.894;2023-08-06T12:00:15;47.71;38.73;64.45;;
66399;Laerm;54877;51.504;3.894;2023-08-06T12:02:45;48.77;38.66;68.43;;
66399;Laerm;54877;51.504;3.894;2023-08-06T12:05:12;43.70;37.73;65.31;;
66399;Laerm;54877;51.504;3.894;2023-08-06T12:07:44;42.82;38.34;53.05;;
66399;Laerm;54877;51.504;3.894;2023-08-06T12:10:10;44.21;40.13;54.63;;
66399;Laerm;54877;51.504;3.894;2023-08-06T12:12:36;44.78;40.53;58.94;;
66399;Laerm;54877;51.504;3.894;2023-08-06T12:15:03;45.05;39.21;67.49;;
66399;Laerm;54877;51.504;3.894;2023-08-06T12:17:28;46.26;38.76;60.32;;
66399;Laerm;54877;51.504;3.894;2023-08-06T12:19:54;45.32;37.83;66.20;;
66399;Laerm;54877;51.504;3.894;2023-08-06T12:22:19;39.32;36.75;51.03;;
66399;Laerm;54877;51.504;3.894;2023-08-06T12:24:46;46.52;36.40;64.40;;
66399;Laerm;54877;51.504;3.894;2023-08-06T12:27:12;43.02;36.82;68.42;;
66399;Laerm;54877;51.504;3.894;2023-08-06T12:29:43;44.37;38.05;60.15;;
66399;Laerm;54877;51.504;3.894;2023-08-06T12:32:09;41.67;37.30;50.46;;
66399;Laerm;54877;51.504;3.894;2023-08-06T12:34:35;45.01;38.62;65.44;;
66399;Laerm;54877;51.504;3.894;2023-08-06T12:37:02;43.48;37.89;68.34;;
66399;Laerm;54877;51.504;3.894;2023-08-06T12:39:27;44.32;38.65;67.55;;
66399;Laerm;54877;51.504;3.894;2023-08-06T12:41:54;42.76;38.75;53.32;;
66399;Laerm;54877;51.504;3.894;2023-08-06T12:44:20;45.23;39.65;64.62;;
66399;Laerm;54877;51.504;3.894;2023-08-06T12:46:46;45.49;38.00;59.97;;
66399;Laerm;54877;51.504;3.894;2023-08-06T12:49:11;41.30;38.05;59.60;;
66399;Laerm;54877;51.504;3.894;2023-08-06T12:51:36;43.34;37.96;52.64;;
66399;Laerm;54877;51.504;3.894;2023-08-06T12:54:02;47.28;38.65;63.47;;
66399;Laerm;54877;51.504;3.894;2023-08-06T12:56:27;39.83;36.76;49.54;;
66399;Laerm;54877;51.504;3.894;2023-08-06T12:58:54;39.57;36.34;50.03;;
66399;Laerm;54877;51.504;3.894;2023-08-06T13:01:19;40.49;35.70;62.87;;
66399;Laerm;54877;51.504;3.894;2023-08-06T13:03:44;39.48;36.19;64.38;;
66399;Laerm;54877;51.504;3.894;2023-08-06T13:06:10;38.90;35.98;48.47;;
66399;Laerm;54877;51.504;3.894;2023-08-06T13:08:36;39.00;35.89;52.08;;
66399;Laerm;54877;51.504;3.894;2023-08-06T13:11:01;43.97;35.64;62.78;;
66399;Laerm;54877;51.504;3.894;2023-08-06T13:13:27;42.88;35.24;61.22;;
66399;Laerm;54877;51.504;3.894;2023-08-06T13:15:52;43.57;35.30;60.75;;
66399;Laerm;54877;51.504;3.894;2023-08-06T13:18:18;40.53;36.42;50.68;;
66399;Laerm;54877;51.504;3.894;2023-08-06T13:20:43;41.88;36.28;67.63;;
66399;Laerm;54877;51.504;3.894;2023-08-06T13:23:08;46.26;36.42;63.57;;
66399;Laerm;54877;51.504;3.894;2023-08-06T13:25:34;43.61;35.92;62.31;;
66399;Laerm;54877;51.504;3.894;2023-08-06T13:28:02;37.66;35.39;56.15;;
66399;Laerm;54877;51.504;3.894;2023-08-06T13:30:28;38.79;35.79;62.26;;
66399;Laerm;54877;51.504;3.894;2023-08-06T13:32:53;46.65;35.61;64.84;;
66399;Laerm;54877;51.504;3.894;2023-08-06T13:35:22;37.12;35.26;42.40;;
66399;Laerm;54877;51.504;3.894;2023-08-06T13:37:47;46.01;35.63;61.88;;
66399;Laerm;54877;51.504;3.894;2023-08-06T13:40:13;39.15;36.02;55.96;;
66399;Laerm;54877;51.504;3.894;2023-08-06T13:42:38;48.07;37.81;63.28;;
66399;Laerm;54877;51.504;3.894;2023-08-06T13:45:05;45.34;36.08;60.61;;
66399;Laerm;54877;51.504;3.894;2023-08-06T13:47:31;48.42;36.58;78.83;;
66399;Laerm;54877;51.504;3.894;2023-08-06T13:49:57;39.96;36.07;56.38;;